LRBS - BUCURESTI / BANEASA-AUREL VLAICU

Compiled: 11:35:34 on 21/04/2018

Latest METAR/SPECI Reports

METAR LRBS 211130Z 28009KT 240V350 CAVOK 21/04 Q1020 NOSIG=

Previous reports

METAR LRBS 211100Z 27009KT 230V360 CAVOK 21/04 Q1021 NOSIG=
METAR LRBS 211030Z 28010KT 230V340 CAVOK 21/04 Q1021 NOSIG=
METAR LRBS 211000Z 29009KT 240V360 CAVOK 20/04 Q1021 NOSIG=
METAR LRBS 210930Z 29008KT 230V350 CAVOK 20/04 Q1021 NOSIG=

Latest TAF report

TAF LRBS 211100Z 2112/2212 25010KT CAVOK BECMG 2200/2202 VRB04KT=

Valid WARNINGS

No valid warnings for LRBS